This is the latest recevied weather packets stored in our database for station/object EW1917. If no packets are shown the sender has not sent any weather packets the latest 10 day(s).
| Time | Temp. | Humidity | Pressure | Rain* | Wind** | Luminosity | Snow |
|---|---|---|---|---|---|---|---|
| 1778185974 | 11.67° C | 77% | 1012.6 hPa | 0 mm | - | 0 W/m² | - |
| 1778182970 | 13.33° C | 79% | 1012.7 hPa | 0 mm | - | 0 W/m² | - |
| 1778182371 | 13.33° C | 77% | 1012.6 hPa | 0 mm | - | 0 W/m² | - |
| 1778182071 | 13.33° C | 76% | 1012.4 hPa | 0 mm | - | 0 W/m² | - |
| 1778180871 | 14.44° C | 73% | 1012 hPa | 0 mm | - | 0 W/m² | - |
| 1778179073 | 16.11° C | 68% | 1011.6 hPa | 0 mm | - | 0 W/m² | - |
| 1778178174 | 16.67° C | 67% | 1011.7 hPa | 0 mm | - | 7 W/m² | - |
| 1778176974 | 17.78° C | 61% | 1011.5 hPa | 0 mm | - | 21 W/m² | - |
| 1778176373 | 18.33° C | 59% | 1011.3 hPa | 0 mm | - | 25 W/m² | - |
| 1778175774 | 18.89° C | 62% | 1011.1 hPa | 0 mm | - | 65 W/m² | - |
| 1778175170 | 19.44° C | 59% | 1011 hPa | 0 mm | - | 98 W/m² | - |
| 1778174273 | 19.44° C | 61% | 1010.9 hPa | 0 mm | - | 142 W/m² | - |
| 1778173370 | 20° C | 58% | 1011 hPa | 0 mm | - | 188 W/m² | - |
| 1778171870 | 20.56° C | 55% | 1011 hPa | 0 mm | - | 267 W/m² | - |
| 1778169480 | 20.56° C | 51% | 1010.7 hPa | 0 mm | - | 383 W/m² | - |
| 1778168573 | 21.11° C | 51% | 1010.7 hPa | 0 mm | - | 422 W/m² | - |
| 1778167370 | 20.56° C | 52% | 1010.7 hPa | 0 mm | - | 485 W/m² | - |
| 1778166476 | 20.56° C | 55% | 1010.8 hPa | 0 mm | - | 512 W/m² | - |
| 1778165880 | 21.11° C | 55% | 1010.9 hPa | 0 mm | - | 636 W/m² | - |
| 1778164673 | 21.11° C | 57% | 1011.1 hPa | 0 mm | - | 710 W/m² | - |
| 1778163470 | 21.11° C | 57% | 1011.1 hPa | 0 mm | - | 768 W/m² | - |
| 1778163170 | 21.11° C | 57% | 1011.1 hPa | 0 mm | - | 830 W/m² | - |
| 1778162870 | 21.11° C | 57% | 1011 hPa | 0 mm | - | 738 W/m² | - |
| 1778161073 | 20.56° C | 60% | 1011.1 hPa | 0 mm | - | 761 W/m² | - |
| 1778160776 | 20.56° C | 58% | 1011.2 hPa | 0 mm | - | 809 W/m² | - |
* Rain latest hour (hover to see other rain measurements)
** Current wind speed in m/s (hover to see current wind gust speed)